createdAt,value
2023-01-23T00:00:08.141Z,-23150.31
2023-01-23T00:02:10.957Z,-23149.84
2023-01-23T00:04:15.068Z,-23151.75
2023-01-23T00:06:19.152Z,-23149.69
2023-01-23T00:08:21.965Z,-23149.22
2023-01-23T00:10:24.983Z,-23150.00
2023-01-23T00:12:27.738Z,-23147.75
2023-01-23T00:14:30.425Z,-23150.97
2023-01-23T00:16:34.944Z,-23148.09
2023-01-23T00:18:37.647Z,-23149.03
2023-01-23T00:20:41.417Z,-23148.09
2023-01-23T00:22:44.070Z,-23148.41
2023-01-23T00:24:46.789Z,-23148.72
2023-01-23T00:26:49.433Z,-23148.41
2023-01-23T00:28:53.150Z,-23148.72
2023-01-23T00:31:02.804Z,-23148.72
2023-01-23T00:33:06.922Z,-23150.81
2023-01-23T00:35:09.770Z,-23150.97
2023-01-23T00:37:12.482Z,-23151.44
2023-01-23T00:39:18.423Z,-23148.41
2023-01-23T00:41:21.120Z,-23149.84
2023-01-23T00:43:24.501Z,-23148.56
2023-01-23T00:45:27.106Z,-23148.72
2023-01-23T00:47:30.313Z,-23153.19
2023-01-23T00:49:34.375Z,-23150.31
2023-01-23T00:51:37.236Z,-23149.69
2023-01-23T00:53:39.911Z,-23149.53
2023-01-23T00:55:43.431Z,-23145.69
2023-01-23T00:57:46.043Z,-23146.50
2023-01-23T00:59:48.731Z,-23147.75
2023-01-23T01:01:51.777Z,-23145.22
2023-01-23T01:03:54.983Z,-23149.84
2023-01-23T01:05:59.359Z,-23148.09
2023-01-23T01:08:02.261Z,-23147.44
2023-01-23T01:10:05.572Z,-23149.22
2023-01-23T01:12:08.607Z,-23147.44
2023-01-23T01:14:11.391Z,-23147.28
2023-01-23T01:16:14.468Z,-23149.22
2023-01-23T01:18:17.513Z,-23148.41
2023-01-23T01:20:20.615Z,-23147.75
2023-01-23T01:22:24.778Z,-23147.44
2023-01-23T01:24:27.628Z,-23148.41
2023-01-23T01:26:30.328Z,-23148.09
2023-01-23T01:28:34.380Z,-23148.25
2023-01-23T01:30:37.748Z,-23148.72
2023-01-23T01:32:41.169Z,-23151.91
2023-01-23T01:34:43.908Z,-23150.81
2023-01-23T01:36:46.717Z,-23147.28
2023-01-23T01:38:51.374Z,-23147.13
2023-01-23T01:40:54.342Z,-23149.03
2023-01-23T01:43:00.661Z,-23148.41
2023-01-23T01:45:03.741Z,-23150.97
2023-01-23T01:47:06.995Z,-23150.97
2023-01-23T01:49:12.634Z,-23147.75
2023-01-23T01:51:20.707Z,-23148.72
2023-01-23T01:53:26.965Z,-23150.66
2023-01-23T01:55:31.385Z,-23151.91
2023-01-23T01:57:37.357Z,-23152.88
2023-01-23T01:59:45.422Z,-23150.16
2023-01-23T02:01:49.893Z,-23150.81
2023-01-23T02:03:54.163Z,-23152.41
2023-01-23T02:05:57.080Z,-23150.00
2023-01-23T02:08:05.565Z,-23150.47
2023-01-23T02:10:09.899Z,-23150.31
2023-01-23T02:12:13.962Z,-23150.66
2023-01-23T02:14:16.912Z,-23150.31
2023-01-23T02:16:23.038Z,-23152.25
2023-01-23T02:18:26.907Z,-23153.84
2023-01-23T02:20:29.803Z,-23151.59
2023-01-23T02:22:43.381Z,-23152.56
2023-01-23T02:24:55.041Z,-23150.31
2023-01-23T02:26:59.013Z,-23149.69
2023-01-23T02:29:01.896Z,-23152.25
2023-01-23T02:31:04.923Z,-23153.38
2023-01-23T02:33:10.171Z,-23152.25
2023-01-23T02:35:24.321Z,-23150.97
2023-01-23T02:37:33.731Z,-23150.47
2023-01-23T02:39:37.128Z,-23149.69
2023-01-23T02:41:43.013Z,-23151.59
2023-01-23T02:43:48.797Z,-23151.75
2023-01-23T02:45:52.244Z,-23150.00
2023-01-23T02:47:55.344Z,-23150.00
2023-01-23T02:49:58.023Z,-23151.75
2023-01-23T02:52:01.364Z,-23154.16
2023-01-23T02:54:04.136Z,-23151.91
2023-01-23T02:56:07.433Z,-23150.66
2023-01-23T02:58:27.533Z,-23148.41
2023-01-23T03:00:31.628Z,-23150.00
2023-01-23T03:02:34.311Z,-23151.75
2023-01-23T03:04:37.042Z,-23155.75
2023-01-23T03:06:39.776Z,-23154.47
2023-01-23T03:08:47.460Z,-23148.41
2023-01-23T03:10:50.383Z,-23154.16
2023-01-23T03:12:53.252Z,-23152.25
2023-01-23T03:14:56.379Z,-23153.84
2023-01-23T03:17:00.715Z,-23151.28
2023-01-23T03:19:05.461Z,-23150.66
2023-01-23T03:21:08.640Z,-23149.03
2023-01-23T03:23:12.555Z,-23151.59
2023-01-23T03:25:15.341Z,-23151.91
2023-01-23T03:27:18.145Z,-23151.59
2023-01-23T03:29:41.345Z,-23150.47
2023-01-23T03:31:44.306Z,-23153.19
2023-01-23T03:33:48.819Z,-23150.16
2023-01-23T03:35:51.611Z,-23153.53
2023-01-23T03:37:54.449Z,-23150.97
2023-01-23T03:40:14.792Z,-23152.72
2023-01-23T03:42:16.647Z,-23153.84
2023-01-23T03:44:20.252Z,-23153.53
2023-01-23T03:46:22.925Z,-23155.91
2023-01-23T03:48:25.672Z,-23153.53
2023-01-23T03:50:29.790Z,-23152.25
2023-01-23T03:52:32.628Z,-23150.81
2023-01-23T03:54:35.565Z,-23155.44
2023-01-23T03:56:38.381Z,-23151.28
2023-01-23T03:58:41.098Z,-23154.31
2023-01-23T04:00:43.934Z,-23155.59
2023-01-23T04:02:46.628Z,-23155.13
2023-01-23T04:04:49.443Z,-23154.63
2023-01-23T04:06:53.625Z,-23153.38
2023-01-23T04:08:57.174Z,-23150.66
2023-01-23T04:11:04.546Z,-23153.03
2023-01-23T04:13:07.257Z,-23152.41
2023-01-23T04:15:11.497Z,-23151.44
2023-01-23T04:17:14.453Z,-23152.88
2023-01-23T04:19:19.826Z,-23150.31
2023-01-23T04:21:22.914Z,-23152.09
2023-01-23T04:23:27.759Z,-23155.28
2023-01-23T04:25:30.611Z,-23151.91
2023-01-23T04:27:33.996Z,-23150.81
2023-01-23T04:29:36.745Z,-23152.88
2023-01-23T04:31:39.786Z,-23151.59
2023-01-23T04:33:42.572Z,-23151.44
2023-01-23T04:35:51.702Z,-23151.13
2023-01-23T04:37:54.359Z,-23151.59
2023-01-23T04:39:58.378Z,-23153.19
2023-01-23T04:42:01.112Z,-23149.53
2023-01-23T04:44:20.050Z,-23150.66
2023-01-23T04:46:23.384Z,-23151.75
2023-01-23T04:48:26.709Z,-23149.84
2023-01-23T04:50:29.399Z,-23150.97
2023-01-23T04:52:32.271Z,-23151.28
2023-01-23T04:54:34.854Z,-23153.53
2023-01-23T04:56:38.895Z,-23154.63
2023-01-23T04:58:41.802Z,-23155.44
2023-01-23T05:00:45.823Z,-23152.88
2023-01-23T05:02:48.579Z,-23155.91
2023-01-23T05:04:51.219Z,-23155.91
2023-01-23T05:06:53.812Z,-23156.06
2023-01-23T05:08:56.876Z,-23155.59
2023-01-23T05:10:59.562Z,-23156.41
2023-01-23T05:13:04.476Z,-23154.31
2023-01-23T05:15:08.086Z,-23155.13
2023-01-23T05:17:10.729Z,-23155.28
2023-01-23T05:19:13.431Z,-23155.59
2023-01-23T05:21:16.152Z,-23157.34
2023-01-23T05:23:18.984Z,-23152.56
2023-01-23T05:25:23.499Z,-23158.97
2023-01-23T05:27:26.213Z,-23157.69
2023-01-23T05:29:30.433Z,-23154.16
2023-01-23T05:31:33.400Z,-23156.72
2023-01-23T05:33:36.261Z,-23155.75
2023-01-23T05:35:40.245Z,-23156.88
2023-01-23T05:37:42.917Z,-23154.47
2023-01-23T05:39:45.649Z,-23155.13
2023-01-23T05:41:48.398Z,-23153.84
2023-01-23T05:43:51.062Z,-23156.06
2023-01-23T05:45:55.045Z,-23157.34
2023-01-23T05:47:57.821Z,-23158.63
2023-01-23T05:50:01.121Z,-23156.41
2023-01-23T05:52:04.055Z,-23156.72
2023-01-23T05:54:06.890Z,-23156.88
2023-01-23T05:56:10.252Z,-23150.97
2023-01-23T05:58:15.091Z,-23154.31
2023-01-23T06:00:20.020Z,-23156.41
2023-01-23T06:02:24.303Z,-23155.59
2023-01-23T06:04:27.570Z,-23156.88
2023-01-23T06:06:30.238Z,-23159.44
2023-01-23T06:08:32.915Z,-23156.72
2023-01-23T06:10:38.152Z,-23158.63
2023-01-23T06:12:40.828Z,-23153.69
2023-01-23T06:14:43.447Z,-23157.34
2023-01-23T06:16:46.237Z,-23156.41
2023-01-23T06:18:50.220Z,-23157.50
2023-01-23T06:20:58.624Z,-23156.41
2023-01-23T06:23:01.436Z,-23156.72
2023-01-23T06:25:04.721Z,-23156.06
2023-01-23T06:27:08.323Z,-23152.72
2023-01-23T06:29:10.982Z,-23152.88
2023-01-23T06:31:13.853Z,-23153.19
2023-01-23T06:33:16.528Z,-23151.13
2023-01-23T06:35:20.885Z,-23151.75
2023-01-23T06:37:23.818Z,-23154.16
2023-01-23T06:39:27.046Z,-23151.13
2023-01-23T06:41:29.785Z,-23151.44
2023-01-23T06:43:32.476Z,-23154.00
2023-01-23T06:45:35.118Z,-23152.88
2023-01-23T06:47:38.153Z,-23151.28
2023-01-23T06:49:40.852Z,-23150.81
2023-01-23T06:51:44.901Z,-23151.91
2023-01-23T06:53:47.477Z,-23151.59
2023-01-23T06:55:50.296Z,-23153.53
2023-01-23T06:57:53.068Z,-23154.31
2023-01-23T06:59:55.841Z,-23153.84
2023-01-23T07:01:58.573Z,-23152.88
2023-01-23T07:04:01.323Z,-23155.59
2023-01-23T07:06:06.924Z,-23155.59
2023-01-23T07:08:11.378Z,-23153.84
2023-01-23T07:10:14.392Z,-23154.47
2023-01-23T07:12:17.144Z,-23158.00
2023-01-23T07:14:19.832Z,-23155.59
2023-01-23T07:16:22.857Z,-23153.53
2023-01-23T07:18:28.200Z,-23159.59
2023-01-23T07:20:31.083Z,-23155.75
2023-01-23T07:22:33.761Z,-23155.44
2023-01-23T07:24:37.711Z,-23154.81
2023-01-23T07:26:40.353Z,-23156.25
2023-01-23T07:28:43.721Z,-23157.69
2023-01-23T07:30:48.010Z,-23156.41
2023-01-23T07:32:51.032Z,-23155.59
2023-01-23T07:34:53.734Z,-23158.97
2023-01-23T07:36:56.473Z,-23155.44
2023-01-23T07:38:59.341Z,-23154.81
2023-01-23T07:41:03.353Z,-23156.41
2023-01-23T07:43:06.387Z,-23156.41
2023-01-23T07:45:10.421Z,-23158.00
2023-01-23T07:47:13.289Z,-23157.34
2023-01-23T07:49:16.518Z,-23156.41
2023-01-23T07:51:19.269Z,-23155.75
2023-01-23T07:53:22.251Z,-23157.69
2023-01-23T07:55:24.916Z,-23160.72
2023-01-23T07:57:29.017Z,-23160.22
2023-01-23T07:59:32.062Z,-23157.50
2023-01-23T08:01:34.786Z,-23167.09
2023-01-23T08:03:37.585Z,-23166.63
2023-01-23T08:05:41.780Z,-23160.88
2023-01-23T08:07:46.166Z,-23162.47
2023-01-23T08:09:48.972Z,-23163.44
2023-01-23T08:11:52.585Z,-23162.47
2023-01-23T08:13:56.558Z,-23160.72
2023-01-23T08:15:59.541Z,-23163.09
2023-01-23T08:18:02.178Z,-23164.06
2023-01-23T08:20:05.634Z,-23161.19
2023-01-23T08:22:08.446Z,-23161.50
2023-01-23T08:24:11.912Z,-23160.22
2023-01-23T08:26:16.174Z,-23163.28
2023-01-23T08:28:18.871Z,-23165.34
2023-01-23T08:30:23.118Z,-23164.72
2023-01-23T08:32:25.878Z,-23162.78
2023-01-23T08:34:28.705Z,-23162.16
2023-01-23T08:36:31.464Z,-23170.78
2023-01-23T08:38:37.228Z,-23164.72
2023-01-23T08:40:39.908Z,-23172.06
2023-01-23T08:42:42.545Z,-23167.44
2023-01-23T08:44:45.253Z,-23169.50
2023-01-23T08:46:49.287Z,-23167.75
2023-01-23T08:48:51.893Z,-23167.59
2023-01-23T08:51:00.539Z,-23166.78
2023-01-23T08:53:03.340Z,-23166.63
2023-01-23T08:55:07.041Z,-23166.47
2023-01-23T08:57:09.795Z,-23170.16
2023-01-23T08:59:12.607Z,-23173.66
2023-01-23T09:01:16.539Z,-23174.63
2023-01-23T09:03:20.556Z,-23176.22
2023-01-23T09:05:23.194Z,-23175.41
2023-01-23T09:07:25.924Z,-23181.97
2023-01-23T09:09:30.111Z,-23182.28
2023-01-23T09:11:32.869Z,-23189.94
2023-01-23T09:13:35.704Z,-23203.03
2023-01-23T09:15:39.148Z,-23200.81
2023-01-23T09:17:41.834Z,-23197.13
2023-01-23T09:19:45.801Z,-23188.66
2023-01-23T09:21:48.544Z,-23182.13
2023-01-23T09:23:51.274Z,-23181.97
2023-01-23T09:25:53.845Z,-23177.81
2023-01-23T09:27:56.419Z,-23179.72
2023-01-23T09:29:59.138Z,-23181.97
2023-01-23T09:32:02.067Z,-23179.56
2023-01-23T09:34:04.814Z,-23183.09
2023-01-23T09:36:10.678Z,-23176.84
2023-01-23T09:38:13.262Z,-23177.66
2023-01-23T09:40:19.537Z,-23178.75
2023-01-23T09:42:26.780Z,-23178.94
2023-01-23T09:44:36.669Z,-23183.41
2023-01-23T09:46:44.105Z,-23178.94
2023-01-23T09:48:48.319Z,-23176.84
2023-01-23T09:50:57.377Z,-23174.63
2023-01-23T09:53:09.237Z,-23174.28
2023-01-23T09:55:16.632Z,-23174.28
2023-01-23T09:57:22.991Z,-23178.13
2023-01-23T09:59:34.517Z,-23177.81
2023-01-23T10:01:38.128Z,-23176.06
2023-01-23T10:03:41.556Z,-23177.16
2023-01-23T10:05:53.485Z,-23176.22
2023-01-23T10:08:11.312Z,-23175.56
2023-01-23T10:10:41.716Z,-23181.97
2023-01-23T10:12:54.805Z,-23177.81
2023-01-23T10:15:20.554Z,-23176.84
2023-01-23T10:17:30.945Z,-23178.94
2023-01-23T10:20:12.917Z,-23181.66
2023-01-23T10:22:31.361Z,-23179.41
2023-01-23T10:24:45.703Z,-23177.16
2023-01-23T10:26:50.082Z,-23180.53
2023-01-23T10:28:59.005Z,-23185.97
2023-01-23T10:31:04.947Z,-23190.59
2023-01-23T10:33:14.547Z,-23186.13
2023-01-23T10:35:21.265Z,-23185.97
2023-01-23T10:37:38.190Z,-23187.06
2023-01-23T10:39:50.760Z,-23186.13
2023-01-23T10:42:01.431Z,-23179.88
2023-01-23T10:44:14.935Z,-23181.16
2023-01-23T10:46:20.882Z,-23182.13
2023-01-23T10:48:45.824Z,-23182.91
2023-01-23T10:50:48.464Z,-23180.19
2023-01-23T10:52:51.182Z,-23178.75
2023-01-23T10:54:55.285Z,-23177.81
2023-01-23T10:56:59.664Z,-23178.75
2023-01-23T10:59:04.509Z,-23180.84
2023-01-23T11:01:24.692Z,-23177.66
2023-01-23T11:03:30.619Z,-23185.78
2023-01-23T11:05:50.649Z,-23182.59
2023-01-23T11:07:56.123Z,-23182.91
2023-01-23T11:10:04.321Z,-23184.84
2023-01-23T11:12:15.419Z,-23183.88
2023-01-23T11:14:24.204Z,-23181.31
2023-01-23T11:16:26.912Z,-23185.16
2023-01-23T11:18:33.681Z,-23187.06
2023-01-23T11:20:38.979Z,-23187.22
2023-01-23T11:22:42.846Z,-23186.28
2023-01-23T11:24:45.519Z,-23191.22
2023-01-23T11:26:59.978Z,-23187.06
2023-01-23T11:29:03.200Z,-23188.03
2023-01-23T11:31:15.238Z,-23188.66
2023-01-23T11:33:34.775Z,-23193.63
2023-01-23T11:35:51.949Z,-23188.50
2023-01-23T11:37:57.819Z,-23184.19
2023-01-23T11:40:04.452Z,-23192.66
2023-01-23T11:42:11.146Z,-23191.22
2023-01-23T11:44:18.711Z,-23196.03
2023-01-23T11:46:38.719Z,-23192.81
2023-01-23T11:48:56.103Z,-23187.06
2023-01-23T11:51:06.906Z,-23185.16
2023-01-23T11:53:28.021Z,-23184.53
2023-01-23T11:55:58.664Z,-23184.53
2023-01-23T11:58:14.316Z,-23186.13
2023-01-23T12:00:29.855Z,-23184.19
2023-01-23T12:02:49.603Z,-23183.56
2023-01-23T12:05:14.642Z,-23187.22
2023-01-23T12:07:20.949Z,-23183.25
2023-01-23T12:09:27.184Z,-23187.88
2023-01-23T12:11:38.979Z,-23187.56
2023-01-23T12:13:59.462Z,-23191.88
2023-01-23T12:16:12.153Z,-23197.63
2023-01-23T12:18:30.213Z,-23191.72
2023-01-23T12:20:42.978Z,-23197.28
2023-01-23T12:22:56.821Z,-23201.44
2023-01-23T12:25:12.448Z,-23196.34
2023-01-23T12:27:25.148Z,-23203.84
2023-01-23T12:29:44.385Z,-23197.47
2023-01-23T12:32:01.682Z,-23198.72
2023-01-23T12:34:22.704Z,-23206.25
2023-01-23T12:36:59.493Z,-23203.69
2023-01-23T12:39:20.410Z,-23199.22
2023-01-23T12:41:36.257Z,-23200.81
2023-01-23T12:43:47.961Z,-23203.84
2023-01-23T12:45:59.448Z,-23209.13
2023-01-23T12:48:08.203Z,-23215.81
2023-01-23T12:50:20.948Z,-23206.25
2023-01-23T12:52:30.042Z,-23215.50
2023-01-23T12:54:38.324Z,-23221.56
2023-01-23T12:56:41.963Z,-23205.59
2023-01-23T12:58:51.201Z,-23214.06
2023-01-23T13:01:15.465Z,-23208.47
2023-01-23T13:03:45.454Z,-23211.81
2023-01-23T13:06:03.785Z,-23218.53
2023-01-23T13:08:12.583Z,-23221.25
2023-01-23T13:10:48.059Z,-23217.72
2023-01-23T13:12:54.890Z,-23212.13
2023-01-23T13:15:38.770Z,-23212.31
2023-01-23T13:17:48.162Z,-23213.09
2023-01-23T13:20:08.213Z,-23211.34
2023-01-23T13:22:29.345Z,-23212.13
2023-01-23T13:25:05.627Z,-23216.78
2023-01-23T13:27:36.162Z,-23206.25
2023-01-23T13:29:52.226Z,-23210.69
2023-01-23T13:32:24.133Z,-23211.81
2023-01-23T13:34:41.601Z,-23210.22
2023-01-23T13:36:45.415Z,-23216.78
2023-01-23T13:39:01.684Z,-23220.44
2023-01-23T13:41:29.714Z,-23220.59
2023-01-23T13:43:52.352Z,-23217.25
2023-01-23T13:45:55.357Z,-23216.13
2023-01-23T14:20:19.105Z,-23218.06
2023-01-23T14:22:21.956Z,-23215.66
2023-01-23T14:24:29.074Z,-23218.06
2023-01-23T14:26:33.688Z,-23219.97
2023-01-23T14:28:36.284Z,-23212.31
2023-01-23T14:30:40.204Z,-23212.94
2023-01-23T14:32:43.109Z,-23212.31
2023-01-23T14:34:45.854Z,-23217.41
2023-01-23T14:36:51.464Z,-23216.94
2023-01-23T14:38:56.620Z,-23212.13
2023-01-23T14:40:59.549Z,-23212.63
2023-01-23T14:43:07.822Z,-23210.06
2023-01-23T14:45:13.779Z,-23208.47
2023-01-23T14:47:20.526Z,-23208.31
2023-01-23T14:49:27.325Z,-23210.38
2023-01-23T14:51:30.185Z,-23209.75
2023-01-23T14:53:33.098Z,-23207.84
2023-01-23T14:55:40.189Z,-23208.16
2023-01-23T14:57:43.595Z,-23210.88
2023-01-23T14:59:47.820Z,-23212.31
2023-01-23T15:01:57.851Z,-23207.50
2023-01-23T15:04:04.304Z,-23210.06
2023-01-23T15:06:14.790Z,-23212.78
2023-01-23T15:08:22.165Z,-23212.00
2023-01-23T15:10:27.497Z,-23209.59
2023-01-23T15:12:30.205Z,-23208.16
2023-01-23T15:14:38.306Z,-23209.44
2023-01-23T15:16:41.911Z,-23210.06
2023-01-23T15:18:54.290Z,-23210.38
2023-01-23T15:20:59.919Z,-23210.69
2023-01-23T15:23:23.620Z,-23211.03
2023-01-23T15:25:30.948Z,-23213.09
2023-01-23T15:27:35.443Z,-23212.00
2023-01-23T15:29:38.083Z,-23211.66
2023-01-23T15:31:45.726Z,-23211.03
2023-01-23T15:33:48.671Z,-23211.19
2023-01-23T15:35:51.533Z,-23210.06
2023-01-23T15:37:58.981Z,-23208.00
2023-01-23T15:40:04.216Z,-23210.06
2023-01-23T15:42:28.598Z,-23209.44
2023-01-23T15:44:33.922Z,-23209.13
2023-01-23T15:46:36.637Z,-23208.16
2023-01-23T15:48:39.298Z,-23208.16
2023-01-23T15:50:42.166Z,-23207.19
2023-01-23T15:52:50.383Z,-23206.25
2023-01-23T15:54:56.669Z,-23208.47
2023-01-23T15:57:07.513Z,-23206.88
2023-01-23T15:59:15.098Z,-23208.94
2023-01-23T16:01:17.828Z,-23207.84
2023-01-23T16:03:20.584Z,-23204.97
2023-01-23T16:05:24.329Z,-23208.47
2023-01-23T16:07:31.714Z,-23206.56
2023-01-23T16:09:37.994Z,-23204.97
2023-01-23T16:11:42.012Z,-23203.38
2023-01-23T16:13:45.464Z,-23204.97
2023-01-23T16:15:48.497Z,-23202.88
2023-01-23T16:17:51.812Z,-23203.69
2023-01-23T16:19:54.546Z,-23204.31
2023-01-23T16:22:04.676Z,-23203.84
2023-01-23T16:24:09.824Z,-23200.66
2023-01-23T16:26:19.457Z,-23200.66
2023-01-23T16:28:26.438Z,-23203.84
2023-01-23T16:30:29.404Z,-23200.16
2023-01-23T16:32:32.105Z,-23199.69
2023-01-23T16:34:34.847Z,-23201.44
2023-01-23T16:36:37.790Z,-23200.31
2023-01-23T16:38:40.614Z,-23201.13
2023-01-23T16:40:43.348Z,-23203.38
2023-01-23T16:42:48.256Z,-23201.44
2023-01-23T16:44:52.286Z,-23202.88
2023-01-23T16:46:55.216Z,-23205.28
2023-01-23T16:48:58.004Z,-23202.88
2023-01-23T16:51:08.162Z,-23201.44
2023-01-23T16:53:19.143Z,-23200.16
2023-01-23T16:55:24.022Z,-23201.94
2023-01-23T16:57:26.763Z,-23199.84
2023-01-23T16:59:36.214Z,-23200.50
2023-01-23T17:01:43.618Z,-23204.31
2023-01-23T17:03:46.531Z,-23201.75
2023-01-23T17:05:49.430Z,-23203.19
2023-01-23T17:07:52.235Z,-23203.38
2023-01-23T17:09:54.910Z,-23204.63
2023-01-23T17:11:57.939Z,-23203.53
2023-01-23T17:14:03.495Z,-23201.44
2023-01-23T17:16:21.877Z,-23201.44
2023-01-23T17:18:33.289Z,-23202.41
2023-01-23T17:20:35.812Z,-23202.09
2023-01-23T17:22:41.965Z,-23202.72
2023-01-23T17:24:44.564Z,-23202.72
2023-01-23T17:26:47.507Z,-23203.19
2023-01-23T17:28:50.296Z,-23203.84
2023-01-23T17:30:55.172Z,-23201.75
2023-01-23T17:32:59.115Z,-23203.03
2023-01-23T17:35:07.115Z,-23202.56
2023-01-23T17:37:18.989Z,-23205.75
2023-01-23T17:39:22.149Z,-23206.56
2023-01-23T17:41:25.005Z,-23203.03
2023-01-23T17:43:29.061Z,-23205.91
2023-01-23T17:45:31.747Z,-23206.41
2023-01-23T17:47:35.460Z,-23201.94
2023-01-23T17:49:38.214Z,-23203.19
2023-01-23T17:51:42.263Z,-23202.56
2023-01-23T17:53:45.006Z,-23204.31
2023-01-23T17:55:51.302Z,-23202.88
2023-01-23T17:57:53.942Z,-23203.38
2023-01-23T17:59:56.733Z,-23205.91
2023-01-23T18:01:59.699Z,-23203.03
2023-01-23T18:04:02.422Z,-23204.97
2023-01-23T18:06:05.247Z,-23202.09
2023-01-23T18:08:14.706Z,-23201.13
2023-01-23T18:10:18.317Z,-23204.97
2023-01-23T18:12:31.370Z,-23205.59
2023-01-23T18:14:43.608Z,-23203.69
2023-01-23T18:16:48.147Z,-23202.56
2023-01-23T18:18:57.942Z,-23205.91
2023-01-23T18:21:01.936Z,-23205.13
2023-01-23T18:23:07.071Z,-23204.47
2023-01-23T18:25:15.716Z,-23204.63
2023-01-23T18:27:23.912Z,-23205.59
2023-01-23T18:29:44.160Z,-23206.41
2023-01-23T18:32:01.316Z,-23204.97
2023-01-23T18:34:12.795Z,-23203.84
2023-01-23T18:36:25.611Z,-23204.63
2023-01-23T18:38:34.629Z,-23202.41
2023-01-23T18:40:47.286Z,-23209.44
2023-01-23T18:42:59.299Z,-23206.88
2023-01-23T18:45:05.809Z,-23206.25
2023-01-23T18:47:12.473Z,-23205.59
2023-01-23T18:49:27.734Z,-23210.06
2023-01-23T18:51:40.636Z,-23208.47
2023-01-23T18:53:52.914Z,-23209.13
2023-01-23T18:56:08.719Z,-23204.00
2023-01-23T18:58:23.476Z,-23204.00
2023-01-23T19:00:31.953Z,-23206.41
2023-01-23T19:02:39.258Z,-23205.59
2023-01-23T19:04:48.393Z,-23206.25
2023-01-23T19:06:51.545Z,-23202.56
2023-01-23T19:08:56.505Z,-23204.63
2023-01-23T19:11:05.576Z,-23203.38
2023-01-23T19:13:17.588Z,-23202.25
2023-01-23T19:15:28.938Z,-23203.03
2023-01-23T19:17:40.519Z,-23203.38
2023-01-23T19:19:49.928Z,-23204.81
2023-01-23T19:21:53.021Z,-23208.94
2023-01-23T19:23:58.746Z,-23204.63
2023-01-23T19:26:03.416Z,-23204.47
2023-01-23T19:28:07.226Z,-23204.31
2023-01-23T19:30:12.877Z,-23205.59
2023-01-23T19:32:16.100Z,-23207.69
2023-01-23T19:34:18.982Z,-23206.25
2023-01-23T19:36:22.708Z,-23208.47
2023-01-23T19:38:25.305Z,-23206.25
2023-01-23T19:40:27.948Z,-23210.88
2023-01-23T19:42:38.748Z,-23209.13
2023-01-23T19:44:51.674Z,-23205.91
2023-01-23T19:46:54.490Z,-23206.56
2023-01-23T19:48:57.764Z,-23210.06
2023-01-23T19:51:00.481Z,-23207.84
2023-01-23T19:53:03.148Z,-23207.50
2023-01-23T19:55:06.180Z,-23207.03
2023-01-23T19:57:08.744Z,-23207.50
2023-01-23T19:59:12.838Z,-23210.38
2023-01-23T20:01:22.738Z,-23211.19
2023-01-23T20:03:25.418Z,-23211.03
2023-01-23T20:05:28.412Z,-23211.34
2023-01-23T20:07:31.039Z,-23213.41
2023-01-23T20:09:33.662Z,-23216.28
2023-01-23T20:11:36.462Z,-23211.34
2023-01-23T20:13:40.801Z,-23213.56
2023-01-23T20:15:44.790Z,-23214.22
2023-01-23T20:17:47.439Z,-23216.13
2023-01-23T20:19:50.049Z,-23217.41
2023-01-23T20:21:52.726Z,-23216.44
2023-01-23T20:23:55.450Z,-23216.13
2023-01-23T20:25:59.260Z,-23216.78
2023-01-23T20:28:01.846Z,-23216.78
2023-01-23T20:30:05.415Z,-23217.41
2023-01-23T20:32:09.540Z,-23217.41
2023-01-23T20:34:12.360Z,-23219.31
2023-01-23T20:36:15.901Z,-23217.41
2023-01-23T20:38:18.882Z,-23218.53
2023-01-23T20:40:21.519Z,-23218.06
2023-01-23T20:42:24.153Z,-23219.00
2023-01-23T20:44:27.045Z,-23220.44
2023-01-23T20:46:29.876Z,-23219.31
2023-01-23T20:48:35.383Z,-23221.25
2023-01-23T20:50:38.165Z,-23220.94
2023-01-23T20:52:58.191Z,-23219.97
2023-01-23T20:55:00.867Z,-23218.06
2023-01-23T20:57:03.491Z,-23218.69
2023-01-23T20:59:21.555Z,-23218.69
2023-01-23T21:01:26.721Z,-23221.41
2023-01-23T21:03:29.483Z,-23220.75
2023-01-23T21:05:33.608Z,-23219.00
2023-01-23T21:07:36.419Z,-23220.28
2023-01-23T21:09:39.157Z,-23218.69
2023-01-23T21:11:41.803Z,-23220.59
2023-01-23T21:13:45.367Z,-23221.56
2023-01-23T21:15:57.923Z,-23222.50
2023-01-23T21:18:00.712Z,-23221.72
2023-01-23T21:20:03.329Z,-23220.94
2023-01-23T21:22:08.134Z,-23223.16
2023-01-23T21:24:10.918Z,-23221.41
2023-01-23T21:26:13.861Z,-23221.25
2023-01-23T21:28:16.495Z,-23220.75
2023-01-23T21:30:19.769Z,-23222.50
2023-01-23T21:32:22.385Z,-23222.34
2023-01-23T21:34:26.451Z,-23220.28
2023-01-23T21:36:30.171Z,-23221.56
2023-01-23T21:38:34.204Z,-23220.94
2023-01-23T21:40:36.869Z,-23221.88
2023-01-23T21:42:39.542Z,-23221.25
2023-01-23T21:44:42.209Z,-23220.13
2023-01-23T21:46:46.549Z,-23220.13
2023-01-23T21:48:49.496Z,-23220.28
2023-01-23T21:50:52.205Z,-23220.94
2023-01-23T21:52:54.829Z,-23218.84
2023-01-23T21:54:58.800Z,-23222.34
2023-01-23T21:57:01.419Z,-23219.81
2023-01-23T21:59:04.075Z,-23222.19
2023-01-23T22:01:26.474Z,-23223.94
2023-01-23T22:03:29.157Z,-23219.50
2023-01-23T22:05:35.195Z,-23221.88
2023-01-23T22:07:37.856Z,-23220.59
2023-01-23T22:09:40.527Z,-23221.88
2023-01-23T22:11:44.861Z,-23222.19
2023-01-23T22:13:48.032Z,-23224.59
2023-01-23T22:15:50.755Z,-23223.78
2023-01-23T22:17:53.474Z,-23222.84
2023-01-23T22:19:56.095Z,-23219.97
2023-01-23T22:21:58.740Z,-23220.28
2023-01-23T22:24:01.535Z,-23218.69
2023-01-23T22:26:07.871Z,-23219.97
2023-01-23T22:28:12.113Z,-23219.00
2023-01-23T22:30:15.191Z,-23221.25
2023-01-23T22:32:18.424Z,-23219.97
2023-01-23T22:34:21.203Z,-23219.97
2023-01-23T22:36:23.841Z,-23221.25
2023-01-23T22:38:26.530Z,-23222.84
2023-01-23T22:40:29.211Z,-23223.16
2023-01-23T22:42:31.858Z,-23219.66
2023-01-23T22:44:35.822Z,-23219.00
2023-01-23T22:46:38.588Z,-23221.72
2023-01-23T22:48:41.721Z,-23219.00
2023-01-23T22:50:44.348Z,-23220.94
2023-01-23T22:52:47.100Z,-23219.00
2023-01-23T22:54:49.747Z,-23219.66
2023-01-23T22:56:52.352Z,-23219.50
2023-01-23T22:58:56.303Z,-23220.28
2023-01-23T23:01:00.398Z,-23218.06
2023-01-23T23:03:03.138Z,-23221.88
2023-01-23T23:05:06.991Z,-23218.69
2023-01-23T23:07:09.610Z,-23220.75
2023-01-23T23:09:12.333Z,-23221.88
2023-01-23T23:11:17.239Z,-23221.56
2023-01-23T23:13:19.996Z,-23219.97
2023-01-23T23:15:23.027Z,-23220.13
2023-01-23T23:17:29.608Z,-23220.75
2023-01-23T23:19:32.612Z,-23219.97
2023-01-23T23:21:36.934Z,-23221.88
2023-01-23T23:23:40.162Z,-23221.56
2023-01-23T23:25:42.775Z,-23220.59
2023-01-23T23:27:45.415Z,-23223.63
2023-01-23T23:29:48.104Z,-23223.31
2023-01-23T23:31:52.076Z,-23219.50
2023-01-23T23:33:56.402Z,-23219.31
2023-01-23T23:35:59.206Z,-23219.66
2023-01-23T23:38:01.928Z,-23217.09
2023-01-23T23:40:05.009Z,-23221.56
2023-01-23T23:42:07.945Z,-23219.31
2023-01-23T23:44:10.647Z,-23217.41
2023-01-23T23:46:14.452Z,-23220.94
2023-01-23T23:48:17.089Z,-23224.44
2023-01-23T23:50:21.372Z,-23218.06
2023-01-23T23:52:24.015Z,-23225.06
2023-01-23T23:54:26.695Z,-23219.50
2023-01-23T23:56:32.040Z,-23216.78
2023-01-23T23:58:36.799Z,-23219.66
